PH-0042 weather

San Miguel Corporate Heliport
Mandaluyong, Philippines

Public forecast

Using degrees Celsius for public forecast. Weather courtesy of forecast.io.

Closest aviation weather report (METAR) to San Miguel Corporate Heliport

Report is more than 6 hours old.

Closest report is Ninoy Aquino International Airport, 5.0 nm (9.3 km) SSW. Retrieved 2020/07/04 14:00 UTC (7 hours ago):

RPLL 041400Z AUTO VRB01KT 9999 FEW210 SCT240 27/25 Q1011

Closest aviation forecast (TAF) to San Miguel Corporate Heliport

Forecast is more than 6 hours old.

Closest forecast is Ninoy Aquino International Airport, 5.0 nm (9.3 km) SSW. Retrieved 2020/07/04 12:00 UTC (9 hours ago):

TAF RPLL 041100Z 0412/0518 12004KT 9999 FEW023 SCT100 TX32/0506Z TN27/0421Z TEMPO 0412/0418 13010KT 8000 -TSRA SCT022CB SCT023 BKN100 TEMPO 0418/0424 17006KT -SHRA FEW022CB SCT023 BKN090